Time;durP1;ratioP1;P1;durP2;ratioP2;P2;SDS_P1;SDS_P2;PMS_P1;PMS_P2;Temp;Humidity;BMP_temperature;BMP_pressure;BME280_temperature;BME280_humidity;BME280_pressure;Samples;Min_cycle;Max_cycle;Signal;HPM_P1;HPM_P2
2021/03/21 00:00:47;;;;;;;7.43;4.65;;;-4.10;82.20;;;;;;5013544;28;20022;-82
2021/03/21 00:03:14;;;;;;;14.95;5.65;;;-4.20;82.70;;;;;;5013268;28;20125;-81
2021/03/21 00:05:39;;;;;;;25.45;6.18;;;-4.30;82.90;;;;;;5013101;28;20029;-82
2021/03/21 00:08:24;;;;;;;12.35;5.32;;;-4.30;83.20;;;;;;5013149;28;20033;-81
2021/03/21 00:10:52;;;;;;;15.82;5.47;;;-4.30;83.60;;;;;;5013755;28;20033;-82
2021/03/21 00:13:20;;;;;;;15.38;5.70;;;-4.40;83.00;;;;;;5013576;28;20018;-81
2021/03/21 00:15:46;;;;;;;12.80;5.85;;;-4.40;82.50;;;;;;5013301;28;20453;-83
2021/03/21 00:18:12;;;;;;;9.48;4.35;;;-4.40;82.80;;;;;;5013122;28;20022;-81
2021/03/21 00:20:38;;;;;;;9.55;4.75;;;-4.40;83.10;;;;;;5013157;28;20022;-81
2021/03/21 00:23:05;;;;;;;8.55;4.80;;;-4.40;83.40;;;;;;5013335;28;20565;-82
2021/03/21 00:25:33;;;;;;;7.40;4.57;;;-4.40;83.60;;;;;;5013094;28;20073;-82
2021/03/21 00:28:01;;;;;;;9.82;5.15;;;-4.40;83.40;;;;;;5013435;28;20045;-82
2021/03/21 00:30:34;;;;;;;8.60;5.05;;;-4.50;83.70;;;;;;5013101;28;20061;-81
2021/03/21 00:33:00;;;;;;;8.50;4.55;;;-4.50;85.30;;;;;;5013336;28;20440;-81
2021/03/21 00:35:26;;;;;;;10.00;4.78;;;-4.60;86.10;;;;;;5016184;28;20060;-81
2021/03/21 00:38:01;;;;;;;8.73;4.97;;;-4.60;86.10;;;;;;5016670;28;20029;-82
2021/03/21 00:40:28;;;;;;;11.07;5.40;;;-4.70;86.90;;;;;;5016370;28;20029;-82
2021/03/21 00:42:55;;;;;;;9.45;5.20;;;-4.70;87.70;;;;;;5016463;28;20401;-82
2021/03/21 00:45:23;;;;;;;9.55;5.82;;;-4.70;87.50;;;;;;5017968;28;20108;-82
2021/03/21 00:47:49;;;;;;;10.20;5.97;;;-4.70;87.10;;;;;;5016596;28;20109;-83
2021/03/21 00:50:25;;;;;;;12.27;6.38;;;-4.70;87.60;;;;;;5016571;28;20053;-82
2021/03/21 00:52:51;;;;;;;9.38;5.72;;;-4.70;87.50;;;;;;5017770;28;20028;-83
2021/03/21 00:55:16;;;;;;;10.48;5.30;;;-4.70;87.30;;;;;;5016303;28;20030;-83
2021/03/21 00:57:43;;;;;;;8.65;5.10;;;-4.80;87.50;;;;;;5016661;28;20025;-82
2021/03/21 01:00:32;;;;;;;12.23;6.03;;;-4.90;88.10;;;;;;5017655;28;20101;-81
2021/03/21 01:02:58;;;;;;;10.68;5.60;;;-4.90;87.80;;;;;;5016968;28;20037;-81
2021/03/21 01:05:28;;;;;;;11.18;5.25;;;-5.00;87.40;;;;;;5016141;28;20116;-82
2021/03/21 01:07:55;;;;;;;7.63;4.72;;;-5.00;87.30;;;;;;5016289;28;20519;-81
2021/03/21 01:10:27;;;;;;;10.48;5.35;;;-5.00;87.50;;;;;;5016238;28;20026;-81
2021/03/21 01:12:57;;;;;;;9.23;5.03;;;-5.10;88.00;;;;;;5016321;28;20433;-82
2021/03/21 01:15:26;;;;;;;7.45;4.68;;;-5.20;89.50;;;;;;5016087;28;20072;-83
2021/03/21 01:17:52;;;;;;;6.32;3.78;;;-5.30;90.00;;;;;;5016454;28;20038;-83
2021/03/21 01:20:24;;;;;;;7.18;4.18;;;-5.30;90.00;;;;;;5016103;28;20469;-81
2021/03/21 01:22:50;;;;;;;7.00;4.22;;;-5.30;90.20;;;;;;5016195;28;20113;-81
2021/03/21 01:25:19;;;;;;;6.68;4.20;;;-5.30;90.80;;;;;;5015810;28;20064;-82
2021/03/21 01:27:45;;;;;;;6.55;3.88;;;-5.50;90.90;;;;;;5015762;28;20033;-82
2021/03/21 01:30:12;;;;;;;7.03;4.22;;;-5.60;90.70;;;;;;5015936;28;20382;-81
2021/03/21 01:32:38;;;;;;;6.65;4.30;;;-5.50;91.00;;;;;;5015801;28;20026;-81
2021/03/21 01:35:05;;;;;;;7.82;4.25;;;-5.60;91.60;;;;;;5015819;28;20030;-81
2021/03/21 01:37:31;;;;;;;6.10;4.38;;;-5.60;91.60;;;;;;5015764;28;20377;-81
2021/03/21 01:39:56;;;;;;;10.25;4.05;;;-5.50;91.50;;;;;;5015993;28;20026;-81
2021/03/21 01:42:22;;;;;;;8.43;4.65;;;-5.60;90.90;;;;;;5015472;28;20497;-81
2021/03/21 01:44:48;;;;;;;6.18;3.80;;;-5.60;91.10;;;;;;5015559;28;20065;-83
2021/03/21 01:47:36;;;;;;;7.07;4.22;;;-5.50;91.00;;;;;;5015618;28;20117;-83
2021/03/21 01:50:23;;;;;;;6.72;4.32;;;-5.60;90.50;;;;;;5015494;28;20061;-82
2021/03/21 01:52:50;;;;;;;7.72;4.13;;;-5.60;90.80;;;;;;5015147;28;20049;-81
2021/03/21 01:55:16;;;;;;;8.10;4.35;;;-5.60;91.30;;;;;;5015496;28;20030;-82
2021/03/21 01:57:43;;;;;;;11.95;4.80;;;-5.60;91.10;;;;;;5015182;28;20497;-81
2021/03/21 02:00:10;;;;;;;8.80;4.55;;;-5.60;91.10;;;;;;5015093;28;20026;-82
2021/03/21 02:02:37;;;;;;;7.40;4.93;;;-5.70;91.80;;;;;;5016313;28;20029;-81
2021/03/21 02:05:05;;;;;;;8.18;4.75;;;-5.60;91.70;;;;;;5014955;28;20041;-81
2021/03/21 02:07:53;;;;;;;8.90;5.13;;;-5.70;91.80;;;;;;5015188;28;20473;-82
2021/03/21 02:10:42;;;;;;;9.95;5.28;;;-5.70;91.70;;;;;;5015334;28;20037;-82
2021/03/21 02:13:16;;;;;;;9.95;5.45;;;-5.70;91.40;;;;;;4996708;28;20064;-81
2021/03/21 02:16:09;;;;;;;9.27;5.75;;;-5.50;91.40;;;;;;5015040;28;20028;-81
2021/03/21 02:18:56;;;;;;;6.47;4.10;;;-5.70;91.40;;;;;;5014971;28;20036;-82
2021/03/21 02:21:37;;;;;;;7.80;4.15;;;-5.70;91.20;;;;;;5015950;28;20046;-82
2021/03/21 02:24:16;;;;;;;7.35;4.15;;;-5.80;91.40;;;;;;5014830;28;20385;-82
2021/03/21 02:27:12;;;;;;;8.52;4.00;;;-5.80;91.40;;;;;;5015832;28;20113;-83
2021/03/21 02:29:49;;;;;;;8.23;4.47;;;-5.90;91.50;;;;;;5014728;28;20072;-82
2021/03/21 02:32:50;;;;;;;8.75;3.97;;;-5.80;91.10;;;;;;5014784;28;20029;-82
2021/03/21 02:35:31;;;;;;;6.93;3.70;;;-5.90;91.00;;;;;;5014849;28;20389;-81
2021/03/21 02:38:08;;;;;;;9.30;4.87;;;-6.00;91.70;;;;;;5014311;28;20038;-81
2021/03/21 02:41:13;;;;;;;9.47;4.70;;;-6.00;91.60;;;;;;5013622;28;20126;-81
2021/03/21 02:43:48;;;;;;;7.55;3.97;;;-6.00;91.40;;;;;;4991763;28;20128;-80
2021/03/21 02:46:20;;;;;;;10.27;4.10;;;-6.00;91.10;;;;;;5013762;28;20080;-82
2021/03/21 02:48:50;;;;;;;7.30;4.25;;;-6.00;91.80;;;;;;5013875;28;20485;-82
2021/03/21 02:51:41;;;;;;;7.13;4.10;;;-6.10;91.70;;;;;;5015011;28;20037;-82
2021/03/21 02:54:25;;;;;;;9.27;4.07;;;-6.00;91.60;;;;;;5014518;28;20022;-83
2021/03/21 02:56:55;;;;;;;8.37;4.37;;;-6.10;91.70;;;;;;5013728;28;20109;-83
2021/03/21 02:59:26;;;;;;;5.83;3.73;;;-6.10;91.50;;;;;;5015353;28;20022;-82
2021/03/21 03:01:57;;;;;;;7.50;4.28;;;-6.20;92.00;;;;;;5014262;28;20076;-80
2021/03/21 03:04:33;;;;;;;6.43;3.90;;;-6.20;92.90;;;;;;5014890;28;20046;-81
2021/03/21 03:07:08;;;;;;;;;;;-6.20;92.60;;;;;;5014178;28;20022;-82
2021/03/21 03:09:47;;;;;;;6.83;3.87;;;-6.30;92.50;;;;;;5014130;28;19916;-81
2021/03/21 03:12:47;;;;;;;8.10;3.63;;;-6.30;92.60;;;;;;5013931;28;20030;-80
2021/03/21 03:15:16;;;;;;;6.15;3.90;;;-6.30;92.40;;;;;;4973949;28;20548;-81
2021/03/21 03:17:48;;;;;;;7.90;4.07;;;-6.40;92.80;;;;;;5002862;28;20405;-82
2021/03/21 03:20:38;;;;;;;7.57;3.70;;;-6.40;93.00;;;;;;5013509;28;20028;-81
2021/03/21 03:23:10;;;;;;;6.13;3.83;;;-6.40;92.90;;;;;;5013812;28;20030;-81
2021/03/21 03:25:49;;;;;;;6.43;3.63;;;-6.40;92.60;;;;;;5013765;28;20037;-81
2021/03/21 03:28:20;;;;;;;8.45;4.15;;;-6.40;92.30;;;;;;5013448;28;20024;-81
2021/03/21 03:30:57;;;;;;;7.03;3.97;;;-6.40;92.20;;;;;;5013808;28;20026;-81
2021/03/21 03:33:23;;;;;;;8.10;3.60;;;-6.40;92.20;;;;;;5013787;28;20025;-81
2021/03/21 03:35:50;;;;;;;9.70;4.85;;;-6.40;92.10;;;;;;5013835;28;20032;-81
2021/03/21 03:38:17;;;;;;;8.82;4.20;;;-6.40;92.50;;;;;;5013512;28;20018;-81
2021/03/21 03:40:44;;;;;;;5.45;3.10;;;-6.40;92.20;;;;;;5014755;28;20049;-81
2021/03/21 03:43:36;;;;;;;6.73;4.07;;;-6.50;92.40;;;;;;5013540;28;20046;-81
2021/03/21 03:46:14;;;;;;;11.10;5.03;;;-6.50;92.80;;;;;;5013643;28;20060;-81
2021/03/21 03:48:50;;;;;;;8.17;3.53;;;-6.40;92.40;;;;;;5013550;28;20026;-81
2021/03/21 03:51:34;;;;;;;10.90;5.27;;;-6.40;92.30;;;;;;5013565;28;20058;-81
2021/03/21 03:54:05;;;;;;;7.63;4.20;;;-6.40;92.80;;;;;;5013582;28;20048;-81
2021/03/21 03:56:40;;;;;;;6.23;3.70;;;-6.40;92.30;;;;;;5013678;28;20210;-83
2021/03/21 03:59:25;;;;;;;7.00;3.83;;;-6.40;92.40;;;;;;5013731;28;20105;-82
2021/03/21 04:01:59;;;;;;;5.22;3.17;;;-6.50;92.40;;;;;;5013520;28;20271;-82
2021/03/21 04:04:48;;;;;;;8.20;4.22;;;-6.40;92.10;;;;;;5013801;28;20050;-82
2021/03/21 04:07:41;;;;;;;5.80;3.95;;;-6.40;92.10;;;;;;5013549;28;20048;-82
2021/03/21 04:10:19;;;;;;;6.10;4.17;;;-6.40;91.70;;;;;;4998886;28;20092;-85
2021/03/21 04:12:51;;;;;;;9.37;4.40;;;-6.50;92.70;;;;;;5018601;28;20429;-84
2021/03/21 04:15:22;;;;;;;7.10;4.20;;;-6.60;92.70;;;;;;5018345;28;20049;-83
2021/03/21 04:18:08;;;;;;;5.47;3.67;;;-6.50;92.60;;;;;;5018080;28;20045;-84
2021/03/21 04:20:42;;;;;;;8.88;4.40;;;-6.60;92.90;;;;;;5017576;28;20069;-82
2021/03/21 04:23:13;;;;;;;8.10;4.40;;;-6.60;93.00;;;;;;5017844;28;20030;-81
2021/03/21 04:25:46;;;;;;;7.03;3.43;;;-6.60;92.70;;;;;;5017486;28;20044;-81
2021/03/21 04:28:19;;;;;;;7.77;4.00;;;-6.70;92.70;;;;;;5017541;28;20026;-83
2021/03/21 04:30:50;;;;;;;8.97;5.00;;;-6.80;93.40;;;;;;5016920;28;20034;-81
2021/03/21 04:33:21;;;;;;;11.43;7.13;;;-6.70;93.40;;;;;;5017293;28;20061;-81
2021/03/21 04:35:57;;;;;;;7.77;5.17;;;-6.70;93.90;;;;;;5018258;28;20056;-81
2021/03/21 04:38:47;;;;;;;9.17;4.57;;;-6.70;93.50;;;;;;5016808;28;20026;-84
2021/03/21 04:41:24;;;;;;;6.90;4.67;;;-6.70;94.20;;;;;;5016999;28;20125;-82
2021/03/21 04:44:06;;;;;;;9.57;4.73;;;-6.70;94.50;;;;;;5016643;28;20046;-82
2021/03/21 04:46:39;;;;;;;8.27;5.00;;;-6.80;94.20;;;;;;5016421;28;20067;-81
2021/03/21 04:49:05;;;;;;;10.30;5.20;;;-6.80;94.80;;;;;;5017183;28;20025;-81
2021/03/21 04:51:33;;;;;;;9.10;5.00;;;-6.80;94.80;;;;;;5017194;28;20095;-82
2021/03/21 04:54:14;;;;;;;8.60;5.37;;;-6.80;95.00;;;;;;5016960;28;20512;-83
2021/03/21 04:57:19;;;;;;;7.70;4.80;;;-6.80;95.30;;;;;;5016454;28;20560;-81
2021/03/21 04:59:45;;;;;;;9.57;4.97;;;-6.80;94.80;;;;;;5017039;28;20018;-81
2021/03/21 05:02:32;;;;;;;9.03;5.70;;;-6.70;95.10;;;;;;5016589;28;20053;-82
2021/03/21 05:05:29;;;;;;;11.07;5.70;;;-6.70;95.20;;;;;;5016030;28;20045;-83
2021/03/21 05:08:10;;;;;;;12.50;5.70;;;-6.70;95.20;;;;;;5004268;28;20105;-81
2021/03/21 05:10:36;;;;;;;9.83;5.90;;;-6.70;94.90;;;;;;5014184;28;20034;-82
2021/03/21 05:13:23;;;;;;;9.70;5.40;;;-6.60;95.60;;;;;;5016160;28;20026;-81
2021/03/21 05:16:00;;;;;;;12.97;7.10;;;-6.60;95.20;;;;;;5016246;28;20026;-81
2021/03/21 05:18:40;;;;;;;11.07;6.90;;;-6.60;95.00;;;;;;5017332;28;20030;-82
2021/03/21 05:21:08;;;;;;;10.83;6.07;;;-6.60;94.70;;;;;;5015810;28;20049;-82
2021/03/21 05:24:12;;;;;;;12.83;6.53;;;-6.60;95.00;;;;;;5016171;28;20034;-83
2021/03/21 05:27:14;;;;;;;10.97;6.37;;;-6.60;94.90;;;;;;5015698;28;20061;-82
2021/03/21 05:29:39;;;;;;;12.60;7.67;;;-6.50;95.20;;;;;;5015487;28;20066;-82
2021/03/21 05:32:06;;;;;;;10.70;6.93;;;-6.50;95.20;;;;;;5017047;28;20067;-82
2021/03/21 05:34:32;;;;;;;14.10;7.00;;;-6.50;95.50;;;;;;5016134;28;20045;-81
2021/03/21 05:37:09;;;;;;;10.37;5.60;;;-6.40;95.50;;;;;;5016726;28;20029;-81
2021/03/21 05:39:50;;;;;;;11.73;6.10;;;-6.40;95.30;;;;;;5015656;28;20068;-81
2021/03/21 05:42:45;;;;;;;9.73;5.60;;;-6.30;95.60;;;;;;5015592;28;20032;-82
2021/03/21 05:45:48;;;;;;;13.80;5.70;;;-6.30;95.60;;;;;;5015565;28;20095;-80
2021/03/21 05:48:47;;;;;;;9.97;5.97;;;-6.20;95.60;;;;;;5015445;28;20029;-81
2021/03/21 05:51:24;;;;;;;11.20;6.13;;;-6.20;95.50;;;;;;5015928;28;20022;-81
2021/03/21 05:54:22;;;;;;;11.93;6.63;;;-6.20;95.50;;;;;;5015389;28;20022;-82
2021/03/21 05:57:17;;;;;;;11.02;6.80;;;-6.10;95.30;;;;;;5012945;28;20124;-81
2021/03/21 06:00:04;;;;;;;9.30;6.07;;;-6.00;95.00;;;;;;5015376;28;20051;-81
2021/03/21 06:02:35;;;;;;;9.37;5.63;;;-6.00;95.20;;;;;;5015249;28;20025;-81
2021/03/21 06:05:23;;;;;;;11.40;5.75;;;-5.90;95.30;;;;;;5014770;28;20121;-81
2021/03/21 06:07:48;;;;;;;12.57;7.32;;;-5.80;95.10;;;;;;5014518;28;20026;-80
2021/03/21 06:10:32;;;;;;;10.15;6.10;;;-4.00;99.90;;;;;;5014561;28;20037;-81
2021/03/21 06:13:30;;;;;;;16.80;8.88;;;-4.40;98.30;;;;;;5014005;28;20029;-81
2021/03/21 06:16:22;;;;;;;15.00;7.75;;;-4.50;94.40;;;;;;5014276;28;20033;-80
2021/03/21 06:18:56;;;;;;;11.23;6.63;;;-4.80;94.50;;;;;;5016504;28;20030;-81
2021/03/21 06:21:31;;;;;;;12.38;6.82;;;-4.90;95.20;;;;;;5016745;28;20714;-82
2021/03/21 06:24:12;;;;;;;13.32;6.85;;;-4.90;95.60;;;;;;5014019;28;20038;-79
2021/03/21 06:26:52;;;;;;;15.93;8.30;;;-5.00;95.80;;;;;;5013366;28;20026;-80
2021/03/21 06:29:37;;;;;;;11.57;6.93;;;-4.90;96.30;;;;;;5012496;28;20040;-78
2021/03/21 06:32:12;;;;;;;12.30;6.38;;;-4.90;95.90;;;;;;5013764;28;20097;-80
2021/03/21 06:35:04;;;;;;;16.70;8.13;;;-4.80;96.00;;;;;;5013045;28;20030;-80
2021/03/21 06:38:11;;;;;;;11.25;6.35;;;-4.70;95.90;;;;;;5016147;28;20037;-81
2021/03/21 06:40:36;;;;;;;;;;;-4.60;95.00;;;;;;5015411;28;20037;-82
2021/03/21 06:43:14;;;;;;;;;;;-4.50;94.50;;;;;;5015840;28;19918;-80
2021/03/21 06:45:48;;;;;;;11.73;6.18;;;-4.40;93.90;;;;;;5013740;28;19979;-82
2021/03/21 06:48:42;;;;;;;10.98;6.40;;;-4.30;93.20;;;;;;5014557;28;20025;-80
2021/03/21 06:51:16;;;;;;;11.50;6.28;;;-4.20;92.80;;;;;;5015577;28;20381;-77
2021/03/21 06:53:56;;;;;;;10.70;5.70;;;-4.10;92.80;;;;;;5014824;28;20033;-80
2021/03/21 06:56:31;;;;;;;9.35;5.22;;;-4.00;91.90;;;;;;5014165;28;20022;-79
2021/03/21 06:59:34;;;;;;;11.15;6.45;;;-3.90;91.40;;;;;;5014214;28;20079;-80
2021/03/21 07:02:21;;;;;;;9.73;6.13;;;-3.80;91.80;;;;;;5013794;28;20034;-81
2021/03/21 07:05:08;;;;;;;11.30;5.40;;;-3.60;91.20;;;;;;5014053;28;20038;-79
2021/03/21 07:08:08;;;;;;;12.70;7.03;;;-3.50;91.00;;;;;;5013386;28;20569;-82
2021/03/21 07:11:12;;;;;;;10.30;6.47;;;-3.30;91.10;;;;;;5013975;28;20064;-81
2021/03/21 07:13:44;;;;;;;11.10;6.45;;;-3.10;90.40;;;;;;4998256;28;20030;-80
2021/03/21 07:16:47;;;;;;;12.60;8.73;;;-3.00;90.50;;;;;;5013367;28;20037;-82
2021/03/21 07:19:37;;;;;;;9.38;6.03;;;-2.70;90.20;;;;;;5014106;28;20054;-81
2021/03/21 07:22:40;;;;;;;11.68;6.00;;;-2.50;90.30;;;;;;5012958;28;20030;-79
2021/03/21 07:25:28;;;;;;;12.05;5.75;;;-2.20;89.20;;;;;;5013231;28;20042;-81
2021/03/21 07:28:20;;;;;;;7.82;6.13;;;-2.00;85.90;;;;;;5012459;28;20453;-79
2021/03/21 07:31:10;;;;;;;7.43;4.78;;;-1.70;87.80;;;;;;5013851;28;20025;-80
2021/03/21 07:34:05;;;;;;;7.10;4.40;;;-1.50;82.00;;;;;;5012554;28;20034;-82
2021/03/21 07:36:53;;;;;;;8.18;4.65;;;-1.30;78.00;;;;;;5012162;28;20018;-79
2021/03/21 07:40:04;;;;;;;6.97;4.85;;;-1.00;73.40;;;;;;5012429;28;20033;-80
2021/03/21 07:42:53;;;;;;;8.57;5.10;;;-0.80;73.00;;;;;;4972068;28;20073;-76
2021/03/21 07:45:27;;;;;;;10.10;6.15;;;-0.60;70.30;;;;;;5008829;28;20397;-76
2021/03/21 07:48:31;;;;;;;7.70;4.97;;;-0.50;68.80;;;;;;5013774;28;20022;-80
2021/03/21 07:51:16;;;;;;;7.28;4.65;;;-0.20;80.10;;;;;;5003286;28;20469;-79
2021/03/21 07:54:23;;;;;;;9.48;6.68;;;0.00;69.50;;;;;;5013491;28;20022;-79
2021/03/21 07:57:07;;;;;;;9.10;4.78;;;0.40;67.50;;;;;;5013395;28;20091;-81
2021/03/21 07:59:34;;;;;;;9.07;4.32;;;0.50;63.80;;;;;;4997987;28;20113;-81
2021/03/21 08:02:00;;;;;;;7.47;4.88;;;0.50;65.20;;;;;;5012595;28;20030;-82
2021/03/21 08:04:35;;;;;;;8.07;4.90;;;0.50;63.10;;;;;;5012860;28;20137;-81
2021/03/21 08:07:13;;;;;;;9.20;6.10;;;0.60;62.80;;;;;;5012351;28;20531;-81
2021/03/21 08:09:40;;;;;;;8.07;4.90;;;0.70;61.30;;;;;;5013994;28;20026;-80
2021/03/21 08:12:18;;;;;;;7.00;4.85;;;0.80;60.60;;;;;;5013881;28;20084;-81
2021/03/21 08:14:57;;;;;;;6.78;4.72;;;1.00;60.50;;;;;;5012361;28;20026;-79
2021/03/21 08:17:29;;;;;;;7.03;4.25;;;1.10;61.70;;;;;;5013971;28;20041;-80
2021/03/21 08:20:07;;;;;;;10.15;4.72;;;1.30;58.40;;;;;;5013837;28;20369;-79
2021/03/21 08:22:33;;;;;;;8.35;6.03;;;1.30;55.80;;;;;;5013875;28;20018;-81
2021/03/21 08:25:15;;;;;;;7.93;5.03;;;1.40;59.20;;;;;;5012495;28;20385;-82
2021/03/21 08:27:41;;;;;;;6.88;4.30;;;1.70;56.80;;;;;;5012576;28;20025;-82
2021/03/21 08:30:11;;;;;;;5.45;4.03;;;1.80;55.60;;;;;;5013988;28;20030;-82
2021/03/21 08:32:55;;;;;;;10.00;4.90;;;1.90;53.50;;;;;;5012572;28;20030;-79
2021/03/21 08:35:27;;;;;;;8.52;4.45;;;1.80;54.60;;;;;;5013201;28;20369;-81
2021/03/21 08:37:58;;;;;;;9.85;5.10;;;1.80;54.00;;;;;;5011888;28;20042;-80
2021/03/21 08:40:38;;;;;;;7.10;4.18;;;2.00;55.10;;;;;;5013259;28;20030;-80
2021/03/21 08:43:24;;;;;;;6.03;4.43;;;2.30;53.40;;;;;;5011589;28;20129;-82
2021/03/21 08:46:21;;;;;;;9.15;5.32;;;2.50;52.60;;;;;;5012982;28;20037;-80
2021/03/21 08:49:19;;;;;;;5.93;3.78;;;2.50;51.20;;;;;;5011213;28;20354;-82
2021/03/21 08:51:46;;;;;;;9.55;5.75;;;2.60;52.00;;;;;;5011459;28;20084;-81
2021/03/21 08:54:14;;;;;;;6.18;3.85;;;2.80;51.60;;;;;;5011573;28;20037;-80
2021/03/21 08:56:56;;;;;;;7.05;4.82;;;3.00;49.90;;;;;;5015408;28;20018;-79
2021/03/21 08:59:36;;;;;;;7.13;4.55;;;2.90;48.40;;;;;;5016461;28;20048;-82
2021/03/21 09:02:14;;;;;;;5.53;4.00;;;2.90;47.90;;;;;;5014186;28;20018;-80
2021/03/21 09:04:59;;;;;;;5.32;3.55;;;3.00;48.90;;;;;;5014504;28;20042;-79
2021/03/21 09:07:27;;;;;;;7.20;4.25;;;3.20;48.20;;;;;;5015747;28;20018;-80
2021/03/21 09:10:11;;;;;;;7.05;4.05;;;3.30;47.70;;;;;;5015090;28;20034;-81
2021/03/21 09:12:45;;;;;;;6.95;4.80;;;3.40;47.60;;;;;;5014433;28;20025;-82
2021/03/21 09:15:17;;;;;;;10.70;5.30;;;3.40;48.50;;;;;;5015080;28;20021;-82
2021/03/21 09:18:21;;;;;;;5.53;3.80;;;3.60;48.70;;;;;;5014872;28;20026;-82
2021/03/21 09:20:50;;;;;;;11.02;3.72;;;3.50;45.40;;;;;;5013915;28;20034;-84
2021/03/21 09:23:43;;;;;;;6.75;4.18;;;3.70;46.00;;;;;;5015920;28;20495;-82
2021/03/21 09:26:11;;;;;;;9.05;5.15;;;3.60;45.90;;;;;;5014726;28;20076;-80
2021/03/21 09:28:38;;;;;;;5.57;3.75;;;3.50;46.20;;;;;;5014083;28;20029;-80
2021/03/21 09:31:11;;;;;;;7.80;4.97;;;3.70;47.60;;;;;;5014262;28;20061;-80
2021/03/21 09:34:01;;;;;;;5.85;3.78;;;3.50;47.50;;;;;;5015264;28;20495;-81
2021/03/21 09:36:48;;;;;;;5.53;3.70;;;3.70;47.80;;;;;;5013892;28;20650;-79
2021/03/21 09:39:27;;;;;;;12.07;8.32;;;3.90;46.10;;;;;;5014013;28;20026;-78
2021/03/21 09:41:53;;;;;;;6.10;4.10;;;3.70;48.30;;;;;;5015467;28;20096;-77
2021/03/21 09:44:33;;;;;;;6.45;4.13;;;3.80;47.00;;;;;;5014161;28;20508;-78
2021/03/21 09:47:12;;;;;;;6.30;3.50;;;4.00;46.70;;;;;;5015627;28;20028;-78
2021/03/21 09:49:55;;;;;;;5.85;3.97;;;4.10;45.90;;;;;;5015583;28;20029;-81
2021/03/21 09:52:41;;;;;;;5.72;3.10;;;4.20;47.40;;;;;;5014290;28;20053;-80
2021/03/21 09:55:20;;;;;;;7.73;4.10;;;4.30;47.00;;;;;;5014348;28;20022;-81
2021/03/21 09:58:05;;;;;;;7.38;4.10;;;4.40;45.20;;;;;;5017238;28;20033;-83
2021/03/21 10:00:37;;;;;;;6.68;5.35;;;4.40;45.70;;;;;;5017028;28;20018;-84
2021/03/21 10:03:08;;;;;;;8.23;5.05;;;4.30;45.50;;;;;;5016812;28;20025;-85
2021/03/21 10:05:41;;;;;;;7.90;5.90;;;4.20;46.30;;;;;;5016800;28;20041;-86
2021/03/21 10:08:26;;;;;;;6.25;3.95;;;4.20;46.40;;;;;;5015788;28;20022;-84
2021/03/21 10:10:58;;;;;;;9.33;5.77;;;4.40;47.00;;;;;;5016126;28;20491;-84
2021/03/21 10:13:39;;;;;;;5.78;4.20;;;4.50;45.70;;;;;;5016841;28;20271;-84
2021/03/21 10:16:24;;;;;;;6.50;4.53;;;4.40;45.80;;;;;;5016535;28;20112;-85
2021/03/21 10:18:53;;;;;;;7.72;3.60;;;4.40;45.70;;;;;;5017104;28;20109;-83
2021/03/21 10:21:42;;;;;;;4.28;3.50;;;4.50;46.20;;;;;;5015765;28;20025;-83
2021/03/21 10:24:26;;;;;;;8.20;4.00;;;4.50;46.50;;;;;;5015484;28;20034;-78
2021/03/21 10:27:14;;;;;;;5.15;4.00;;;4.80;64.00;;;;;;5014634;28;20038;-79
2021/03/21 10:29:39;;;;;;;5.80;4.30;;;4.90;47.00;;;;;;5013499;28;20138;-80
2021/03/21 10:32:27;;;;;;;5.40;3.65;;;4.90;46.50;;;;;;5013254;28;20570;-80
2021/03/21 10:34:53;;;;;;;11.93;6.72;;;5.10;46.10;;;;;;5013408;28;20029;-79
2021/03/21 10:37:41;;;;;;;24.73;15.77;;;5.10;45.80;;;;;;5013231;28;20033;-81
2021/03/21 10:40:24;;;;;;;7.53;5.55;;;4.90;45.70;;;;;;5014689;28;20026;-79
2021/03/21 10:42:54;;;;;;;7.57;5.68;;;4.60;46.00;;;;;;5015661;28;20494;-84
2021/03/21 10:45:39;;;;;;;8.95;6.80;;;4.60;46.80;;;;;;5014377;28;20033;-82
2021/03/21 10:48:14;;;;;;;5.72;4.53;;;4.60;46.80;;;;;;5014338;28;20029;-83
2021/03/21 10:50:45;;;;;;;5.60;3.95;;;4.50;47.30;;;;;;5013845;28;20058;-81
2021/03/21 10:53:29;;;;;;;7.00;4.57;;;4.50;47.80;;;;;;5013454;28;20485;-80
2021/03/21 10:56:22;;;;;;;5.43;3.83;;;4.50;49.40;;;;;;5013166;28;20052;-80
2021/03/21 10:59:08;;;;;;;7.05;3.38;;;4.50;50.00;;;;;;5012827;28;20040;-77
2021/03/21 11:01:37;;;;;;;4.93;3.50;;;5.10;59.40;;;;;;5013142;28;20033;-84
2021/03/21 11:04:23;;;;;;;4.30;3.58;;;5.60;49.80;;;;;;5015632;28;20037;-81
2021/03/21 11:06:53;;;;;;;16.67;14.50;;;5.30;47.10;;;;;;5016038;28;20038;-86
2021/03/21 11:09:20;;;;;;;8.23;6.43;;;4.70;49.00;;;;;;5015694;28;20029;-86
2021/03/21 11:11:49;;;;;;;6.53;4.78;;;4.40;51.70;;;;;;5015737;28;20084;-86
2021/03/21 11:14:26;;;;;;;11.15;7.68;;;4.20;52.00;;;;;;5016869;28;20018;-87
2021/03/21 11:17:10;;;;;;;6.63;5.20;;;4.10;54.10;;;;;;5014943;28;20030;-85
2021/03/21 11:19:47;;;;;;;6.13;3.75;;;4.10;54.70;;;;;;5017569;28;20481;-82
2021/03/21 11:22:25;;;;;;;5.93;3.40;;;4.30;54.90;;;;;;5015102;28;20018;-85
2021/03/21 11:24:50;;;;;;;13.23;8.30;;;4.50;54.60;;;;;;5015231;28;20034;-86
2021/03/21 11:27:34;;;;;;;17.33;12.27;;;4.40;55.40;;;;;;5014524;28;20045;-86
2021/03/21 11:30:10;;;;;;;5.63;3.95;;;4.50;54.40;;;;;;5014203;28;20026;-84
2021/03/21 11:32:36;;;;;;;12.73;11.18;;;4.60;53.60;;;;;;5014544;28;20381;-83
2021/03/21 11:35:05;;;;;;;34.05;30.65;;;4.80;53.00;;;;;;5014325;28;20664;-84
2021/03/21 11:37:34;;;;;;;9.57;7.30;;;4.70;51.80;;;;;;5015306;28;20058;-84
2021/03/21 11:40:08;;;;;;;10.35;7.03;;;4.60;52.80;;;;;;5014817;28;20036;-84
2021/03/21 11:42:41;;;;;;;6.07;4.32;;;4.80;52.40;;;;;;5014124;28;20129;-84
2021/03/21 11:45:29;;;;;;;7.32;5.45;;;4.90;51.30;;;;;;5014276;28;20037;-84
2021/03/21 11:48:14;;;;;;;8.10;5.57;;;4.90;52.60;;;;;;5013934;28;20041;-82
2021/03/21 11:50:43;;;;;;;7.20;5.10;;;5.10;51.80;;;;;;5014176;28;20022;-83
2021/03/21 11:53:19;;;;;;;6.65;4.63;;;5.10;52.00;;;;;;5014295;28;20259;-85
2021/03/21 11:55:51;;;;;;;5.72;4.20;;;5.20;52.10;;;;;;5014114;28;20026;-85
2021/03/21 11:58:20;;;;;;;5.72;4.70;;;5.50;50.50;;;;;;5013754;28;20084;-86
2021/03/21 12:00:56;;;;;;;4.82;3.50;;;5.40;51.70;;;;;;5014009;28;20355;-85
2021/03/21 12:03:23;;;;;;;10.35;6.80;;;5.50;48.90;;;;;;5013832;28;20177;-85
2021/03/21 12:06:19;;;;;;;8.02;5.60;;;5.50;48.00;;;;;;5013060;28;20129;-83
2021/03/21 12:08:44;;;;;;;7.90;4.70;;;5.30;48.80;;;;;;5014101;28;20029;-83
2021/03/21 12:11:24;;;;;;;5.38;4.10;;;5.60;50.90;;;;;;5014276;28;20267;-83
2021/03/21 12:13:51;;;;;;;6.43;3.83;;;5.80;49.50;;;;;;5013834;28;20030;-82
2021/03/21 12:16:38;;;;;;;5.85;3.95;;;6.10;49.60;;;;;;5012966;28;20057;-84
2021/03/21 12:19:11;;;;;;;4.95;3.40;;;6.00;48.10;;;;;;5013109;28;20033;-83
2021/03/21 12:21:38;;;;;;;5.18;3.83;;;5.80;48.50;;;;;;4997647;28;20037;-85
2021/03/21 12:24:05;;;;;;;6.35;4.10;;;5.60;47.90;;;;;;5013727;28;20034;-83
2021/03/21 12:26:37;;;;;;;7.07;3.88;;;5.40;48.10;;;;;;5013156;28;20025;-84
2021/03/21 12:29:24;;;;;;;5.28;3.88;;;5.30;48.70;;;;;;5014435;28;20101;-84
2021/03/21 12:31:56;;;;;;;6.05;3.65;;;5.30;49.20;;;;;;5017660;28;20054;-86
2021/03/21 12:34:34;;;;;;;6.60;4.10;;;5.30;50.70;;;;;;5016847;28;20042;-82
2021/03/21 12:37:18;;;;;;;4.82;3.40;;;5.40;49.70;;;;;;5017392;28;20381;-83
2021/03/21 12:39:46;;;;;;;4.75;3.80;;;5.50;49.80;;;;;;5017931;28;20122;-83
2021/03/21 12:42:27;;;;;;;6.50;5.05;;;5.60;50.40;;;;;;5017460;28;20433;-84
2021/03/21 12:45:20;;;;;;;8.55;4.40;;;5.80;50.50;;;;;;5017268;28;20044;-84
2021/03/21 12:47:54;;;;;;;7.40;4.10;;;5.70;50.00;;;;;;5017171;28;20084;-84
2021/03/21 12:50:33;;;;;;;7.10;3.50;;;5.60;50.50;;;;;;5017733;28;20389;-84
2021/03/21 12:53:00;;;;;;;6.22;4.05;;;5.40;51.30;;;;;;5018271;28;20030;-84
2021/03/21 12:55:26;;;;;;;5.85;3.88;;;5.30;51.80;;;;;;5017779;28;20049;-83
2021/03/21 12:57:54;;;;;;;6.00;4.10;;;5.20;52.00;;;;;;5016950;28;20057;-84
2021/03/21 13:00:29;;;;;;;6.68;4.75;;;5.10;52.10;;;;;;5017568;28;20026;-83
2021/03/21 13:02:56;;;;;;;5.57;4.15;;;5.40;51.80;;;;;;5017263;28;20034;-85
2021/03/21 13:05:29;;;;;;;7.22;4.82;;;5.50;52.30;;;;;;5016663;28;20065;-83
2021/03/21 13:07:56;;;;;;;5.72;3.60;;;5.60;52.70;;;;;;5017591;28;20026;-84
2021/03/21 13:10:23;;;;;;;5.18;4.03;;;5.70;52.30;;;;;;5017191;28;20033;-85
2021/03/21 13:12:49;;;;;;;4.88;3.60;;;5.70;52.50;;;;;;5018150;28;20022;-84
2021/03/21 13:15:16;;;;;;;5.55;4.35;;;5.70;52.80;;;;;;5017324;28;20029;-85
2021/03/21 13:17:43;;;;;;;6.90;3.80;;;5.50;52.40;;;;;;5017095;28;20377;-84
2021/03/21 13:20:11;;;;;;;11.50;8.82;;;5.50;52.30;;;;;;5016835;28;20018;-84
2021/03/21 13:22:37;;;;;;;6.88;3.60;;;5.70;53.30;;;;;;5018958;28;20034;-84
2021/03/21 13:25:05;;;;;;;4.18;3.20;;;5.60;52.90;;;;;;5017600;28;20043;-84
2021/03/21 13:27:31;;;;;;;5.20;3.50;;;5.60;52.90;;;;;;5017846;28;20157;-84
2021/03/21 13:29:58;;;;;;;4.22;3.20;;;5.60;53.70;;;;;;5018392;28;20049;-83
2021/03/21 13:32:24;;;;;;;5.97;4.20;;;5.40;54.10;;;;;;5016940;28;20022;-84
2021/03/21 13:34:55;;;;;;;5.78;3.88;;;5.40;55.00;;;;;;5018674;28;20022;-86
2021/03/21 13:37:23;;;;;;;6.00;3.72;;;5.50;55.00;;;;;;5019381;28;20085;-85
2021/03/21 13:39:50;;;;;;;6.38;4.15;;;5.50;54.70;;;;;;5017882;28;20065;-84
2021/03/21 13:42:18;;;;;;;7.72;4.35;;;5.40;55.00;;;;;;5016937;28;20014;-85